Time;durP1;ratioP1;P1;durP2;ratioP2;P2;SDS_P1;SDS_P2;PMS_P1;PMS_P2;Temp;Humidity;BMP_temperature;BMP_pressure;BME280_temperature;BME280_humidity;BME280_pressure;Samples;Min_cycle;Max_cycle;Signal;HPM_P1;HPM_P2
2022/07/17 00:01:07;;;;;;;43.60;40.97;;;14.90;99.90;;;;;;5012837;28;20184;-78
2022/07/17 00:03:33;;;;;;;87.43;83.03;;;14.90;99.90;;;;;;5012599;28;20644;-78
2022/07/17 00:05:59;;;;;;;69.77;66.13;;;14.90;99.90;;;;;;4995476;28;20187;-78
2022/07/17 00:08:25;;;;;;;77.57;73.57;;;14.80;99.90;;;;;;4994308;28;20326;-77
2022/07/17 00:10:51;;;;;;;69.23;65.33;;;14.80;99.90;;;;;;5012945;28;20172;-78
2022/07/17 00:13:18;;;;;;;67.27;63.87;;;14.80;99.90;;;;;;5012461;28;20227;-78
2022/07/17 00:15:44;;;;;;;64.33;60.77;;;14.70;99.90;;;;;;4995253;28;20172;-77
2022/07/17 00:18:10;;;;;;;58.13;54.87;;;14.70;99.90;;;;;;5010683;28;20283;-77
2022/07/17 00:20:36;;;;;;;63.30;60.00;;;14.50;99.90;;;;;;4994846;28;20226;-77
2022/07/17 00:23:02;;;;;;;53.00;50.30;;;14.50;99.90;;;;;;5012110;28;20303;-78
2022/07/17 00:25:28;;;;;;;57.43;54.50;;;14.40;99.90;;;;;;5012982;28;20601;-77
2022/07/17 00:27:54;;;;;;;49.07;46.37;;;14.40;99.90;;;;;;5011704;28;20262;-78
2022/07/17 00:30:20;;;;;;;42.07;39.87;;;14.40;99.90;;;;;;5012403;28;20696;-78
2022/07/17 00:32:45;;;;;;;62.27;58.87;;;14.50;99.90;;;;;;4994510;28;20184;-78
2022/07/17 00:35:12;;;;;;;48.70;46.23;;;14.40;99.90;;;;;;5012286;28;20198;-77
2022/07/17 00:37:40;;;;;;;23.07;21.83;;;14.40;99.90;;;;;;4994405;28;20176;-79
2022/07/17 00:40:08;;;;;;;37.03;34.73;;;14.40;99.90;;;;;;4996561;28;20176;-77
2022/07/17 00:42:34;;;;;;;60.87;57.57;;;14.40;99.90;;;;;;5013439;28;20180;-78
2022/07/17 00:45:01;;;;;;;51.83;49.07;;;14.20;99.90;;;;;;4995092;28;20195;-77
2022/07/17 00:47:27;;;;;;;44.63;42.30;;;14.10;99.90;;;;;;4994232;28;20717;-78
2022/07/17 00:49:53;;;;;;;33.83;32.10;;;14.10;99.90;;;;;;5012061;28;20203;-78
2022/07/17 00:52:19;;;;;;;35.90;33.97;;;14.20;99.90;;;;;;5011744;28;20176;-78
2022/07/17 00:54:46;;;;;;;46.90;44.40;;;14.20;99.90;;;;;;4994572;28;20196;-78
2022/07/17 00:57:15;;;;;;;43.33;41.10;;;14.20;99.90;;;;;;5010862;28;20221;-77
2022/07/17 00:59:42;;;;;;;42.27;39.90;;;14.10;99.90;;;;;;5012030;28;20652;-78
2022/07/17 01:02:11;;;;;;;40.73;38.33;;;14.00;99.90;;;;;;5011849;28;20187;-77
2022/07/17 01:04:38;;;;;;;38.47;36.53;;;14.00;99.90;;;;;;4994205;28;20294;-77
2022/07/17 01:07:06;;;;;;;31.57;29.93;;;14.00;99.90;;;;;;4993820;28;20278;-77
2022/07/17 01:09:33;;;;;;;31.23;29.43;;;14.00;99.90;;;;;;4993899;28;20286;-77
2022/07/17 01:12:00;;;;;;;31.07;29.33;;;14.10;99.90;;;;;;4994213;28;20188;-77
2022/07/17 01:14:27;;;;;;;31.40;29.70;;;14.10;99.90;;;;;;5011722;28;20199;-78
2022/07/17 01:16:54;;;;;;;33.50;31.70;;;14.10;99.90;;;;;;4993467;28;20183;-77
2022/07/17 01:19:21;;;;;;;30.27;28.63;;;14.10;99.90;;;;;;5011200;28;20188;-78
2022/07/17 01:21:49;;;;;;;38.53;36.53;;;14.10;99.90;;;;;;5011619;28;20230;-77
2022/07/17 01:24:17;;;;;;;36.17;33.87;;;14.00;99.90;;;;;;5013822;28;20219;-77
2022/07/17 01:26:45;;;;;;;39.37;36.93;;;13.90;99.90;;;;;;5016049;28;20184;-77
2022/07/17 01:29:12;;;;;;;21.10;19.83;;;13.80;99.90;;;;;;5011249;28;20211;-77
2022/07/17 01:31:40;;;;;;;19.57;18.47;;;13.80;99.90;;;;;;4994308;28;20192;-78
2022/07/17 01:34:08;;;;;;;17.23;16.33;;;13.80;99.90;;;;;;5011123;28;20286;-78
2022/07/17 01:36:35;;;;;;;23.13;21.87;;;13.70;99.90;;;;;;5011580;28;20180;-77
2022/07/17 01:39:01;;;;;;;20.97;19.70;;;13.70;99.90;;;;;;4993413;28;20191;-77
2022/07/17 01:41:26;;;;;;;22.43;21.13;;;13.70;99.90;;;;;;5012281;28;20557;-77
2022/07/17 01:43:52;;;;;;;21.07;19.87;;;13.60;99.90;;;;;;5011231;28;20290;-77
2022/07/17 01:46:18;;;;;;;21.97;20.77;;;13.50;99.90;;;;;;4993926;28;20219;-78
2022/07/17 01:48:44;;;;;;;21.23;19.93;;;13.40;99.90;;;;;;4992802;28;20230;-77
2022/07/17 01:51:10;;;;;;;32.50;30.53;;;13.40;99.90;;;;;;4994283;28;20183;-78
2022/07/17 01:53:35;;;;;;;64.07;60.87;;;13.30;99.90;;;;;;4994591;28;20192;-78
2022/07/17 01:56:02;;;;;;;57.47;54.47;;;13.20;99.90;;;;;;5010580;28;20194;-78
2022/07/17 01:58:28;;;;;;;30.27;28.60;;;13.20;99.90;;;;;;5009624;28;20269;-77
2022/07/17 02:00:54;;;;;;;29.70;28.13;;;13.10;99.90;;;;;;5010969;28;20696;-78
2022/07/17 02:03:21;;;;;;;24.70;23.33;;;13.10;99.90;;;;;;5011106;28;20227;-77
2022/07/17 02:05:47;;;;;;;21.97;20.70;;;13.10;99.90;;;;;;5011153;28;20208;-78
2022/07/17 02:08:13;;;;;;;17.20;16.20;;;13.10;99.90;;;;;;5010222;28;20180;-77
2022/07/17 02:10:39;;;;;;;27.47;26.00;;;13.20;99.90;;;;;;5010423;28;20194;-77
2022/07/17 02:13:05;;;;;;;26.30;24.93;;;13.20;99.90;;;;;;4993288;28;20211;-78
2022/07/17 02:15:31;;;;;;;36.20;34.20;;;13.10;99.90;;;;;;5011192;28;20180;-77
2022/07/17 02:17:57;;;;;;;35.00;33.13;;;13.10;99.90;;;;;;5010334;28;20675;-77
2022/07/17 02:20:23;;;;;;;36.53;34.67;;;13.00;99.90;;;;;;4993972;28;20195;-77
2022/07/17 02:22:49;;;;;;;27.13;25.60;;;13.00;99.90;;;;;;4993521;28;20184;-78
2022/07/17 02:25:15;;;;;;;23.80;22.13;;;12.90;99.90;;;;;;5025611;23;20231;-77
2022/07/17 02:27:41;;;;;;;30.67;29.07;;;12.80;99.90;;;;;;5009140;28;20205;-76
2022/07/17 02:30:13;;;;;;;41.53;39.27;;;12.90;99.90;;;;;;5010357;28;20256;-76
2022/07/17 02:32:39;;;;;;;43.77;41.33;;;12.90;99.90;;;;;;5012686;28;20186;-77
2022/07/17 02:35:07;;;;;;;48.93;46.23;;;12.80;99.90;;;;;;5010088;28;20572;-76
2022/07/17 02:37:33;;;;;;;48.50;46.07;;;12.80;99.90;;;;;;5009202;28;20194;-76
2022/07/17 02:39:59;;;;;;;41.90;39.80;;;12.80;99.90;;;;;;5010936;28;20267;-76
2022/07/17 02:42:27;;;;;;;49.57;46.80;;;12.70;99.90;;;;;;5011600;28;20241;-77
2022/07/17 02:44:54;;;;;;;27.73;26.17;;;12.70;99.90;;;;;;5014682;28;20195;-77
2022/07/17 02:47:33;;;;;;;30.20;28.10;;;12.60;99.90;;;;;;5013631;28;20180;-76
2022/07/17 02:50:03;;;;;;;25.33;23.77;;;12.60;99.90;;;;;;5014492;28;20222;-77
2022/07/17 02:52:29;;;;;;;67.80;64.03;;;12.50;99.90;;;;;;5014628;28;20179;-76
2022/07/17 02:54:54;;;;;;;58.60;55.53;;;12.40;99.90;;;;;;5014361;28;20286;-77
2022/07/17 02:57:21;;;;;;;68.90;65.33;;;12.40;99.90;;;;;;5013430;28;20185;-77
2022/07/17 02:59:47;;;;;;;43.97;41.37;;;12.40;99.90;;;;;;5014159;28;20184;-77
2022/07/17 03:02:14;;;;;;;63.20;59.67;;;12.40;99.90;;;;;;5014562;28;20279;-77
2022/07/17 03:04:40;;;;;;;59.73;56.43;;;12.30;99.90;;;;;;5014403;28;20231;-77
2022/07/17 03:07:06;;;;;;;44.57;42.20;;;12.30;99.90;;;;;;5012415;28;20218;-77
2022/07/17 03:09:32;;;;;;;36.33;34.17;;;12.30;99.90;;;;;;5014086;28;20239;-77
2022/07/17 03:11:59;;;;;;;30.50;28.87;;;12.20;99.90;;;;;;5013026;28;20202;-76
2022/07/17 03:14:25;;;;;;;25.77;24.20;;;12.20;99.90;;;;;;5014013;28;20207;-76
2022/07/17 03:16:51;;;;;;;74.30;70.27;;;12.10;99.90;;;;;;5013365;28;20179;-77
2022/07/17 03:19:16;;;;;;;141.27;133.80;;;12.10;99.90;;;;;;5013901;28;20191;-77
2022/07/17 03:21:42;;;;;;;116.53;110.30;;;12.10;99.90;;;;;;5012896;28;20312;-76
2022/07/17 03:24:08;;;;;;;28.83;27.23;;;12.20;99.90;;;;;;5013874;28;20208;-77
2022/07/17 03:26:34;;;;;;;75.40;71.43;;;12.10;99.90;;;;;;5012537;28;20245;-77
2022/07/17 03:29:00;;;;;;;115.07;108.93;;;12.10;99.90;;;;;;5012665;28;20691;-76
2022/07/17 03:31:26;;;;;;;40.60;38.07;;;12.00;99.90;;;;;;5014373;28;20187;-77
2022/07/17 03:33:52;;;;;;;150.23;142.27;;;12.00;99.90;;;;;;5014664;28;20203;-76
2022/07/17 03:36:18;;;;;;;142.23;134.90;;;12.10;99.90;;;;;;5014400;28;20242;-77
2022/07/17 03:38:44;;;;;;;73.47;69.57;;;12.10;99.90;;;;;;5013151;28;20183;-77
2022/07/17 03:41:10;;;;;;;162.13;153.57;;;12.20;99.90;;;;;;5013773;28;20237;-76
2022/07/17 03:43:36;;;;;;;16.30;15.20;;;12.20;99.90;;;;;;5013177;28;20240;-78
2022/07/17 03:46:02;;;;;;;13.50;12.60;;;12.30;99.90;;;;;;5013091;28;20179;-77
2022/07/17 03:48:28;;;;;;;13.23;12.33;;;12.30;99.90;;;;;;5012725;28;20540;-77
2022/07/17 03:50:54;;;;;;;13.43;12.57;;;12.30;99.90;;;;;;5012350;28;20241;-77
2022/07/17 03:53:20;;;;;;;10.33;9.73;;;12.30;99.90;;;;;;5013175;28;20184;-75
2022/07/17 03:55:45;;;;;;;13.63;12.83;;;12.30;99.90;;;;;;5013329;28;20628;-75
2022/07/17 03:58:11;;;;;;;17.83;16.63;;;12.30;99.90;;;;;;5012278;28;20184;-75
2022/07/17 04:00:37;;;;;;;13.07;12.07;;;12.30;99.90;;;;;;5013373;28;20687;-75
2022/07/17 04:03:03;;;;;;;13.43;12.53;;;12.30;99.90;;;;;;5011947;28;20715;-75
2022/07/17 04:05:29;;;;;;;14.00;13.10;;;12.20;99.90;;;;;;5013285;28;20208;-74
2022/07/17 04:07:55;;;;;;;13.23;12.37;;;12.20;99.90;;;;;;5014626;28;20180;-74
2022/07/17 04:10:22;;;;;;;17.33;16.23;;;12.30;99.90;;;;;;5036481;28;20211;-74
2022/07/17 04:12:48;;;;;;;17.37;16.27;;;12.30;99.90;;;;;;5022358;28;20924;-75
2022/07/17 04:15:48;;;;;;;17.80;16.70;;;12.30;99.90;;;;;;5014484;28;20200;-75
2022/07/17 04:17:59;;;;;;;18.50;17.50;;;12.40;99.90;;;;;;5012026;28;20573;-75
2022/07/17 04:20:25;;;;;;;21.43;20.27;;;12.40;99.90;;;;;;5011835;28;20211;-77
2022/07/17 04:22:51;;;;;;;22.43;21.30;;;12.50;99.90;;;;;;5012763;28;20237;-75
2022/07/17 04:25:17;;;;;;;14.47;13.47;;;12.50;99.90;;;;;;5011218;28;20207;-75
2022/07/17 04:27:42;;;;;;;18.60;17.50;;;12.50;99.90;;;;;;5012081;28;20206;-75
2022/07/17 04:30:09;;;;;;;16.00;15.00;;;12.50;99.90;;;;;;5011456;28;20215;-75
2022/07/17 04:32:34;;;;;;;11.30;10.50;;;12.50;99.90;;;;;;5011443;28;20184;-75
2022/07/17 04:35:00;;;;;;;9.80;9.00;;;12.60;99.90;;;;;;5012675;28;20203;-75
2022/07/17 04:37:26;;;;;;;15.63;14.63;;;12.70;99.90;;;;;;5011730;28;20186;-75
2022/07/17 04:39:52;;;;;;;14.93;14.07;;;12.70;99.90;;;;;;5012295;28;20207;-75
2022/07/17 04:42:18;;;;;;;18.20;17.03;;;12.70;99.90;;;;;;5012424;28;20180;-75
2022/07/17 04:44:44;;;;;;;19.87;18.83;;;12.90;99.90;;;;;;5011146;28;20201;-75
2022/07/17 04:47:11;;;;;;;21.53;20.20;;;13.00;99.90;;;;;;5011924;28;20187;-75
2022/07/17 04:49:37;;;;;;;17.73;16.43;;;13.10;99.90;;;;;;5012631;28;20200;-75
2022/07/17 04:52:03;;;;;;;8.80;8.20;;;13.20;99.90;;;;;;5011942;28;20188;-71
2022/07/17 04:54:29;;;;;;;8.47;7.90;;;13.30;99.90;;;;;;5011578;28;20212;-71
2022/07/17 04:56:54;;;;;;;7.67;7.20;;;13.40;99.90;;;;;;5009123;28;20187;-73
2022/07/17 04:59:21;;;;;;;8.70;8.10;;;13.50;99.90;;;;;;5023324;28;20597;-70
2022/07/17 05:01:47;;;;;;;11.73;10.77;;;13.60;99.90;;;;;;5031822;28;20187;-71
2022/07/17 05:04:13;;;;;;;98.77;93.83;;;13.70;99.90;;;;;;5029923;28;20211;-72
2022/07/17 05:06:38;;;;;;;94.30;89.37;;;13.80;99.90;;;;;;5023774;28;20544;-70
2022/07/17 05:09:04;;;;;;;24.37;23.10;;;13.90;99.90;;;;;;5012904;28;20688;-71
2022/07/17 05:11:30;;;;;;;51.73;49.07;;;14.20;99.90;;;;;;5004644;28;20184;-71
2022/07/17 05:13:56;;;;;;;23.10;21.73;;;14.50;99.90;;;;;;5011817;28;20206;-71
2022/07/17 05:16:22;;;;;;;83.60;79.43;;;14.90;99.90;;;;;;5011143;28;20184;-71
2022/07/17 05:18:48;;;;;;;15.27;14.07;;;15.50;99.90;;;;;;5026689;28;20611;-71
2022/07/17 05:21:14;;;;;;;10.83;10.03;;;16.10;99.90;;;;;;5029401;28;20217;-71
2022/07/17 05:23:40;;;;;;;54.00;50.87;;;16.90;99.90;;;;;;5025256;28;20186;-71
2022/07/17 05:26:06;;;;;;;137.60;130.80;;;17.50;99.90;;;;;;5010449;28;20187;-71
2022/07/17 05:28:32;;;;;;;76.33;72.63;;;18.00;99.90;;;;;;5009166;28;20188;-71
2022/07/17 05:30:58;;;;;;;24.33;22.98;;;18.40;99.90;;;;;;5010626;28;20180;-71
2022/07/17 05:33:24;;;;;;;10.95;10.25;;;18.70;99.90;;;;;;5009266;28;20187;-71
2022/07/17 05:35:50;;;;;;;7.28;6.88;;;19.00;99.90;;;;;;5011187;28;20211;-71
2022/07/17 05:38:15;;;;;;;8.63;8.07;;;19.30;99.90;;;;;;5008577;28;21472;-73
2022/07/17 05:40:42;;;;;;;10.43;9.73;;;19.50;99.90;;;;;;5011330;28;20183;-71
2022/07/17 05:43:08;;;;;;;15.77;14.73;;;19.80;99.90;;;;;;5026191;28;20612;-71
2022/07/17 05:45:34;;;;;;;16.92;15.88;;;20.30;99.90;;;;;;5009985;28;20231;-71
2022/07/17 05:48:00;;;;;;;11.82;11.05;;;20.80;99.90;;;;;;5010084;28;20194;-71
2022/07/17 05:50:26;;;;;;;7.63;6.32;;;21.20;99.90;;;;;;5010982;28;20211;-71
2022/07/17 05:52:52;;;;;;;6.88;6.47;;;21.20;99.90;;;;;;5028717;28;20194;-71
2022/07/17 05:55:18;;;;;;;7.35;6.75;;;21.70;99.90;;;;;;5026254;28;20235;-71
2022/07/17 05:57:44;;;;;;;5.93;5.50;;;21.90;99.90;;;;;;5010673;28;20183;-70
2022/07/17 06:00:10;;;;;;;9.23;8.52;;;22.60;99.90;;;;;;5011431;28;20700;-71
2022/07/17 06:02:36;;;;;;;12.70;11.70;;;22.90;99.90;;;;;;5010814;28;20175;-72
2022/07/17 06:05:02;;;;;;;10.65;9.90;;;23.00;99.40;;;;;;5010934;28;20206;-72
2022/07/17 06:07:28;;;;;;;6.43;6.00;;;23.10;99.30;;;;;;5009666;28;20715;-73
2022/07/17 06:09:54;;;;;;;6.13;5.72;;;23.30;98.50;;;;;;5011118;28;20266;-72
2022/07/17 06:12:20;;;;;;;7.25;6.65;;;23.40;97.90;;;;;;5010668;28;20223;-72
2022/07/17 06:14:46;;;;;;;7.05;6.43;;;23.60;96.90;;;;;;5010405;28;20243;-69
2022/07/17 06:17:12;;;;;;;8.60;7.90;;;23.60;96.80;;;;;;5008162;28;20191;-70
2022/07/17 06:19:38;;;;;;;8.57;8.05;;;23.60;96.50;;;;;;5014246;28;20731;-69
2022/07/17 06:22:03;;;;;;;8.20;7.75;;;23.80;96.70;;;;;;5014134;28;20263;-70
2022/07/17 06:24:29;;;;;;;6.85;5.93;;;24.00;96.00;;;;;;5013847;28;20219;-69
2022/07/17 06:26:55;;;;;;;6.07;4.47;;;24.40;95.60;;;;;;5013783;28;20184;-69
2022/07/17 06:29:21;;;;;;;7.15;6.57;;;24.70;94.60;;;;;;5014571;28;20211;-69
2022/07/17 06:31:46;;;;;;;10.15;9.35;;;24.90;94.10;;;;;;5013816;28;20263;-69
2022/07/17 06:34:12;;;;;;;8.68;7.88;;;25.10;92.50;;;;;;5014037;28;20213;-69
2022/07/17 06:36:38;;;;;;;5.45;5.00;;;25.30;91.60;;;;;;5013676;28;20203;-68
2022/07/17 06:39:04;;;;;;;6.15;5.75;;;25.40;90.20;;;;;;5013504;28;20586;-69
2022/07/17 06:41:30;;;;;;;6.47;6.07;;;25.40;84.70;;;;;;5013877;28;20195;-68
2022/07/17 06:43:56;;;;;;;9.40;8.70;;;25.10;84.80;;;;;;5013926;28;20208;-69
2022/07/17 06:46:22;;;;;;;6.38;5.78;;;25.10;88.40;;;;;;5014591;28;20183;-69
2022/07/17 06:48:51;;;;;;;4.82;4.53;;;25.90;86.40;;;;;;5012849;28;20306;-70
2022/07/17 06:51:17;;;;;;;5.13;4.80;;;26.40;80.30;;;;;;5012288;28;20191;-70
2022/07/17 06:53:43;;;;;;;4.95;4.50;;;26.70;81.20;;;;;;5013867;28;20222;-70
2022/07/17 06:56:09;;;;;;;4.30;4.10;;;27.20;80.60;;;;;;5013164;28;20176;-70
2022/07/17 06:58:36;;;;;;;5.20;4.90;;;27.40;78.80;;;;;;5012604;28;20183;-70
2022/07/17 07:01:02;;;;;;;5.53;5.13;;;27.40;75.80;;;;;;5013002;28;20171;-70
2022/07/17 07:03:28;;;;;;;6.53;6.13;;;27.50;76.20;;;;;;5013364;28;20183;-69
2022/07/17 07:05:55;;;;;;;5.88;5.47;;;27.30;77.70;;;;;;5012645;28;20220;-70
2022/07/17 07:08:20;;;;;;;6.05;5.75;;;27.50;74.60;;;;;;5012743;28;20191;-70
2022/07/17 07:10:46;;;;;;;5.57;5.28;;;27.50;76.30;;;;;;5014033;28;20208;-72
2022/07/17 07:13:12;;;;;;;6.03;5.47;;;27.70;75.30;;;;;;5014415;28;20328;-70
2022/07/17 07:15:38;;;;;;;6.15;5.75;;;27.90;74.30;;;;;;5014223;28;20246;-70
2022/07/17 07:18:04;;;;;;;6.30;6.00;;;27.80;72.90;;;;;;5012183;28;20183;-70
2022/07/17 07:20:30;;;;;;;7.25;6.75;;;27.70;72.30;;;;;;5013690;28;20191;-68
2022/07/17 07:22:56;;;;;;;10.10;8.35;;;27.80;70.90;;;;;;5013718;28;20188;-68
2022/07/17 07:25:22;;;;;;;8.75;8.35;;;28.20;70.80;;;;;;5013336;28;20706;-69
2022/07/17 07:27:48;;;;;;;15.65;14.82;;;28.50;67.60;;;;;;5012185;28;20192;-71
2022/07/17 07:30:13;;;;;;;14.43;13.63;;;28.40;67.00;;;;;;5013901;28;20215;-70
2022/07/17 07:32:40;;;;;;;15.93;15.05;;;28.40;68.00;;;;;;5012940;28;20186;-70
2022/07/17 07:35:07;;;;;;;19.35;18.27;;;28.40;67.20;;;;;;5013569;28;20192;-70
2022/07/17 07:37:33;;;;;;;25.52;24.08;;;28.80;66.10;;;;;;5017442;28;20256;-70
2022/07/17 07:39:59;;;;;;;43.97;41.85;;;29.10;64.30;;;;;;5022234;28;20209;-69
2022/07/17 07:42:26;;;;;;;56.95;54.17;;;29.30;63.20;;;;;;5013315;28;20183;-70
2022/07/17 07:44:51;;;;;;;45.25;42.92;;;29.30;58.40;;;;;;4996050;28;20704;-70
2022/07/17 07:47:17;;;;;;;42.58;40.58;;;28.70;58.60;;;;;;4992669;28;20188;-69
2022/07/17 07:49:44;;;;;;;32.17;30.52;;;28.50;59.10;;;;;;4992713;28;20208;-71
2022/07/17 07:52:10;;;;;;;50.35;47.80;;;28.80;61.10;;;;;;4993910;28;20185;-70
2022/07/17 07:54:35;;;;;;;63.08;60.05;;;29.00;56.80;;;;;;4991504;28;20200;-70
2022/07/17 07:57:02;;;;;;;58.92;56.17;;;29.10;58.10;;;;;;5009451;28;20180;-69
2022/07/17 07:59:32;;;;;;;25.30;24.05;;;28.30;57.40;;;;;;5012692;28;20195;-70
2022/07/17 08:01:59;;;;;;;20.98;19.95;;;28.00;59.50;;;;;;5012197;28;20270;-70
2022/07/17 08:04:25;;;;;;;34.35;32.67;;;28.30;60.90;;;;;;5028277;28;20211;-70
2022/07/17 08:06:51;;;;;;;31.00;29.50;;;28.70;58.10;;;;;;5012699;28;20188;-70
2022/07/17 08:09:17;;;;;;;31.25;29.45;;;28.20;56.90;;;;;;5012379;28;20242;-70
2022/07/17 08:11:42;;;;;;;24.25;22.75;;;28.30;57.50;;;;;;5012837;28;20638;-71
2022/07/17 08:14:08;;;;;;;13.82;13.20;;;28.10;56.50;;;;;;5012742;28;20208;-77
2022/07/17 08:16:35;;;;;;;20.27;19.23;;;27.80;58.20;;;;;;5011366;28;20191;-75
2022/07/17 08:19:01;;;;;;;15.20;14.27;;;27.80;56.70;;;;;;5011091;28;20274;-78
2022/07/17 08:21:28;;;;;;;21.85;20.85;;;28.20;57.80;;;;;;5013239;28;20546;-76
2022/07/17 08:26:22;;;;;;;17.98;16.85;;;28.30;55.40;;;;;;5034522;28;20211;-80
2022/07/17 08:28:48;;;;;;;26.10;24.77;;;28.20;56.30;;;;;;5035211;28;20213;-77
2022/07/17 08:31:15;;;;;;;41.85;39.83;;;28.60;57.10;;;;;;5033540;28;20679;-78
2022/07/17 08:33:41;;;;;;;33.03;31.38;;;28.90;55.40;;;;;;5036181;28;20179;-79
2022/07/17 08:36:07;;;;;;;52.40;49.63;;;29.10;56.30;;;;;;5041915;28;20199;-79
2022/07/17 08:38:33;;;;;;;93.63;88.97;;;29.60;57.50;;;;;;5041722;28;20230;-78
2022/07/17 08:40:59;;;;;;;119.78;114.05;;;29.80;55.60;;;;;;5054599;28;20191;-77
2022/07/17 08:43:25;;;;;;;135.30;128.80;;;29.80;54.00;;;;;;5037847;28;20179;-80
2022/07/17 08:45:51;;;;;;;137.07;130.57;;;29.80;55.00;;;;;;5037429;28;20203;-80
2022/07/17 08:48:18;;;;;;;152.73;145.30;;;30.20;54.20;;;;;;5037817;28;20191;-80
2022/07/17 08:50:45;;;;;;;168.57;160.57;;;30.70;52.10;;;;;;5039070;28;20218;-79
2022/07/17 08:53:11;;;;;;;196.13;186.82;;;30.70;53.20;;;;;;5042047;28;20250;-79
2022/07/17 08:55:38;;;;;;;184.13;175.20;;;30.90;53.00;;;;;;5039941;28;20209;-79
2022/07/17 08:58:06;;;;;;;205.50;195.38;;;30.90;53.10;;;;;;5038111;28;20195;-78
2022/07/17 09:00:32;;;;;;;201.50;191.88;;;30.80;54.00;;;;;;5039621;28;20183;-79
2022/07/17 09:03:07;;;;;;;187.50;178.50;;;30.60;52.40;;;;;;5038006;28;20802;-77
2022/07/17 09:05:41;;;;;;;161.82;154.07;;;30.60;52.50;;;;;;5044791;28;20202;-78
2022/07/17 09:08:09;;;;;;;160.77;152.95;;;30.50;53.00;;;;;;5038328;28;20282;-77
2022/07/17 09:10:40;;;;;;;162.82;154.90;;;30.80;53.00;;;;;;5049748;28;20213;-78
2022/07/17 09:13:29;;;;;;;165.00;156.80;;;31.00;52.80;;;;;;5035833;28;20727;-78
2022/07/17 09:16:05;;;;;;;173.75;165.45;;;31.10;51.10;;;;;;5036906;28;20226;-78
2022/07/17 09:18:42;;;;;;;172.45;164.00;;;31.50;52.20;;;;;;5034185;28;20178;-81
2022/07/17 09:21:26;;;;;;;185.20;176.25;;;31.50;52.00;;;;;;5037630;28;20174;-78
2022/07/17 09:24:03;;;;;;;198.20;188.55;;;31.70;50.40;;;;;;5032257;28;20175;-80
2022/07/17 09:26:30;;;;;;;205.95;195.88;;;31.50;50.80;;;;;;5019249;28;20721;-79
2022/07/17 09:28:56;;;;;;;197.23;187.80;;;31.50;50.90;;;;;;5020489;28;20207;-78
2022/07/17 09:31:33;;;;;;;227.98;216.80;;;31.60;50.10;;;;;;5020894;28;20264;-78
2022/07/17 09:33:59;;;;;;;213.07;202.88;;;31.90;49.90;;;;;;5038108;28;20209;-79
2022/07/17 09:36:26;;;;;;;197.02;187.63;;;32.50;47.40;;;;;;5038379;28;20179;-80
2022/07/17 09:38:54;;;;;;;218.73;207.85;;;32.20;47.80;;;;;;5038327;28;20186;-80
2022/07/17 09:41:22;;;;;;;202.93;193.15;;;32.10;48.50;;;;;;5036602;28;20186;-77
2022/07/17 09:44:14;;;;;;;164.30;156.48;;;32.40;46.80;;;;;;5041488;28;20245;-77
2022/07/17 09:46:41;;;;;;;245.18;233.27;;;32.20;48.60;;;;;;5040234;28;20199;-76
2022/07/17 09:49:07;;;;;;;232.30;220.52;;;32.30;49.30;;;;;;5035340;28;20203;-78
2022/07/17 09:51:39;;;;;;;233.90;222.25;;;31.60;50.50;;;;;;5032257;28;20172;-77
2022/07/17 09:54:07;;;;;;;178.30;169.80;;;31.90;50.00;;;;;;5023073;28;20191;-78
2022/07/17 09:56:36;;;;;;;152.50;145.25;;;32.60;47.60;;;;;;5012219;28;20171;-75
2022/07/17 09:59:12;;;;;;;108.25;103.18;;;32.00;47.50;;;;;;5017449;28;20191;-79
2022/07/17 10:01:43;;;;;;;148.25;141.07;;;31.40;45.60;;;;;;5036594;28;20174;-78
2022/07/17 10:04:10;;;;;;;155.82;148.45;;;31.60;48.00;;;;;;5051840;28;20273;-80
2022/07/17 10:06:36;;;;;;;116.65;111.13;;;32.00;48.50;;;;;;5034766;28;20183;-77
2022/07/17 10:09:04;;;;;;;112.15;106.90;;;32.40;46.30;;;;;;5032895;28;20206;-77
2022/07/17 10:11:34;;;;;;;142.70;135.85;;;32.50;46.20;;;;;;5034706;28;20183;-78
2022/07/17 10:14:14;;;;;;;104.53;99.43;;;32.40;44.90;;;;;;5049360;28;20269;-80
2022/07/17 10:16:40;;;;;;;122.55;116.70;;;32.20;47.70;;;;;;5036300;28;20229;-79
2022/07/17 10:19:20;;;;;;;219.10;208.60;;;32.50;45.90;;;;;;5045556;28;20198;-77
2022/07/17 10:21:58;;;;;;;198.85;189.02;;;33.20;42.30;;;;;;5044165;28;20256;-79
2022/07/17 10:24:25;;;;;;;173.48;164.98;;;32.90;41.80;;;;;;5031846;28;20244;-76
2022/07/17 10:26:51;;;;;;;155.48;148.13;;;32.30;43.10;;;;;;5031229;28;20189;-75
2022/07/17 10:29:33;;;;;;;130.63;124.43;;;32.10;42.80;;;;;;5033458;28;20215;-79
2022/07/17 10:32:06;;;;;;;156.27;148.95;;;32.40;43.90;;;;;;5031343;28;20183;-78
2022/07/17 10:34:41;;;;;;;183.07;174.00;;;32.70;43.70;;;;;;5031729;28;20691;-78
2022/07/17 10:37:18;;;;;;;173.00;164.60;;;32.50;44.20;;;;;;5032335;28;20181;-81
2022/07/17 10:40:00;;;;;;;111.75;106.55;;;33.30;41.70;;;;;;5049778;28;20590;-79
2022/07/17 10:42:50;;;;;;;185.38;176.52;;;34.00;40.20;;;;;;5033005;28;20185;-80
2022/07/17 10:45:42;;;;;;;53.45;50.60;;;34.10;41.60;;;;;;5037659;28;20697;-79
2022/07/17 10:48:15;;;;;;;38.00;36.25;;;34.40;40.30;;;;;;5032893;28;20191;-79
2022/07/17 10:50:46;;;;;;;24.63;23.52;;;33.90;40.40;;;;;;5052197;28;20214;-78
2022/07/17 10:53:26;;;;;;;32.17;30.65;;;33.70;39.00;;;;;;5037819;28;20191;-78
2022/07/17 10:55:56;;;;;;;23.95;22.83;;;34.00;38.60;;;;;;5026479;28;20290;-78
2022/07/17 10:58:37;;;;;;;27.50;26.25;;;33.70;39.10;;;;;;5032066;28;20255;-78
2022/07/17 11:01:14;;;;;;;24.83;23.52;;;34.10;39.20;;;;;;5033019;28;20175;-82
2022/07/17 11:03:51;;;;;;;17.77;16.95;;;34.50;39.60;;;;;;5055840;28;20187;-80
2022/07/17 11:06:21;;;;;;;7.70;7.30;;;35.00;40.00;;;;;;5054240;28;20349;-81
2022/07/17 11:08:58;;;;;;;7.03;6.72;;;35.20;37.30;;;;;;5018255;28;20195;-77
2022/07/17 11:11:44;;;;;;;8.88;8.48;;;34.50;37.20;;;;;;5019029;28;20355;-82
2022/07/17 11:14:22;;;;;;;7.38;6.88;;;34.70;37.90;;;;;;5036152;28;20179;-83
2022/07/17 11:16:59;;;;;;;7.30;6.90;;;34.90;38.90;;;;;;5033063;28;20726;-88
2022/07/17 11:19:41;;;;;;;8.35;7.85;;;35.90;39.00;;;;;;5034397;28;20651;-82
2022/07/17 11:22:10;;;;;;;7.28;6.97;;;36.40;38.00;;;;;;5047532;28;20247;-82
2022/07/17 11:24:41;;;;;;;7.05;6.55;;;37.00;34.60;;;;;;5037926;28;20211;-80
2022/07/17 11:27:11;;;;;;;7.32;7.03;;;37.10;33.60;;;;;;5033850;28;20267;-78
2022/07/17 11:29:38;;;;;;;8.05;7.65;;;36.60;33.60;;;;;;5037309;28;20207;-80
2022/07/17 11:32:05;;;;;;;7.47;7.03;;;35.50;35.00;;;;;;5025930;28;20199;-78
2022/07/17 11:34:31;;;;;;;7.22;6.82;;;35.70;36.30;;;;;;5035667;28;20286;-79
2022/07/17 11:37:02;;;;;;;4.75;4.55;;;35.70;34.70;;;;;;5048943;28;20274;-79
2022/07/17 11:39:41;;;;;;;7.88;7.47;;;36.00;35.10;;;;;;5033947;28;20237;-79
2022/07/17 11:42:13;;;;;;;6.53;6.18;;;36.20;33.60;;;;;;5035644;28;20218;-78
2022/07/17 11:44:39;;;;;;;9.57;9.07;;;36.30;33.20;;;;;;5037213;28;20585;-78
2022/07/17 11:47:06;;;;;;;6.80;6.50;;;36.30;33.20;;;;;;5033858;28;20383;-78
2022/07/17 11:49:34;;;;;;;5.45;5.05;;;35.60;33.50;;;;;;5031960;28;20203;-83
2022/07/17 11:52:12;;;;;;;5.07;4.88;;;35.90;33.10;;;;;;5016041;28;20214;-81
2022/07/17 11:54:58;;;;;;;4.85;4.72;;;35.90;33.00;;;;;;5014013;28;20294;-81
2022/07/17 11:57:27;;;;;;;3.42;3.25;;;35.80;33.40;;;;;;5014390;28;20179;-81
2022/07/17 11:59:54;;;;;;;4.30;4.10;;;36.10;31.60;;;;;;5014202;28;20183;-80
2022/07/17 12:02:28;;;;;;;7.35;6.85;;;36.40;32.20;;;;;;5015046;28;20652;-84
2022/07/17 12:04:56;;;;;;;4.00;3.90;;;36.70;33.60;;;;;;5029038;28;20722;-84
2022/07/17 12:07:39;;;;;;;5.18;4.88;;;37.10;31.70;;;;;;5029414;28;20735;-81
2022/07/17 12:10:22;;;;;;;5.07;4.75;;;37.30;31.20;;;;;;5022768;28;20207;-81
2022/07/17 12:13:07;;;;;;;4.35;4.10;;;37.10;31.60;;;;;;5038274;28;20214;-80
2022/07/17 12:15:49;;;;;;;4.03;3.83;;;37.00;32.00;;;;;;5064533;28;20214;-80
2022/07/17 12:18:27;;;;;;;7.00;6.50;;;37.40;31.00;;;;;;5034841;28;20228;-78
2022/07/17 12:20:55;;;;;;;3.85;3.65;;;37.40;32.90;;;;;;5049180;28;20206;-79
2022/07/17 12:23:31;;;;;;;5.50;5.30;;;37.40;32.50;;;;;;5033673;28;20316;-80
2022/07/17 12:26:08;;;;;;;5.05;4.75;;;38.00;30.30;;;;;;5035122;28;20214;-78
2022/07/17 12:28:35;;;;;;;4.55;4.35;;;37.10;31.00;;;;;;5034136;28;20588;-79
2022/07/17 12:31:02;;;;;;;4.88;4.68;;;37.00;31.60;;;;;;5033332;28;20185;-81
2022/07/17 12:33:29;;;;;;;4.35;4.15;;;36.50;31.20;;;;;;5033966;28;20659;-80
2022/07/17 12:35:54;;;;;;;4.70;4.40;;;35.60;32.60;;;;;;5045082;28;20278;-77